TAF KCNM
AMD KCNM 082050Z 0821/0918 19011KT P6SM SCT250 FM090800 24011KT P6SM SCT250=
METAR KCNM
WC KCNM
WS KCNM
WV KCNM